sensor_id;sensor_type;location;lat;lon;timestamp;P1;durP1;ratioP1;P2;durP2;ratioP2
65045;SDS011;54657;52.022;5.534;2022-10-16T00:00:43;4.05;;;2.00;;
65045;SDS011;54657;52.022;5.534;2022-10-16T00:03:09;4.75;;;2.30;;
65045;SDS011;54657;52.022;5.534;2022-10-16T00:05:41;4.70;;;2.17;;
65045;SDS011;54657;52.022;5.534;2022-10-16T00:08:08;4.22;;;2.00;;
65045;SDS011;54657;52.022;5.534;2022-10-16T00:10:35;4.22;;;2.22;;
65045;SDS011;54657;52.022;5.534;2022-10-16T00:13:01;6.85;;;2.17;;
65045;SDS011;54657;52.022;5.534;2022-10-16T00:15:27;7.05;;;2.30;;
65045;SDS011;54657;52.022;5.534;2022-10-16T00:17:52;4.32;;;2.20;;
65045;SDS011;54657;52.022;5.534;2022-10-16T00:20:18;3.88;;;1.98;;
65045;SDS011;54657;52.022;5.534;2022-10-16T00:22:43;6.65;;;2.03;;
65045;SDS011;54657;52.022;5.534;2022-10-16T00:25:09;2.88;;;1.98;;
65045;SDS011;54657;52.022;5.534;2022-10-16T00:27:34;5.70;;;2.17;;
65045;SDS011;54657;52.022;5.534;2022-10-16T00:30:00;4.88;;;2.28;;
65045;SDS011;54657;52.022;5.534;2022-10-16T00:32:26;3.05;;;1.75;;
65045;SDS011;54657;52.022;5.534;2022-10-16T00:34:51;3.28;;;2.00;;
65045;SDS011;54657;52.022;5.534;2022-10-16T00:37:19;4.40;;;2.13;;
65045;SDS011;54657;52.022;5.534;2022-10-16T00:39:45;3.25;;;2.10;;
65045;SDS011;54657;52.022;5.534;2022-10-16T00:42:14;3.13;;;2.10;;
65045;SDS011;54657;52.022;5.534;2022-10-16T00:47:29;1.75;;;1.65;;
65045;SDS011;54657;52.022;5.534;2022-10-16T00:50:22;2.40;;;1.73;;
65045;SDS011;54657;52.022;5.534;2022-10-16T00:52:54;2.10;;;1.85;;
65045;SDS011;54657;52.022;5.534;2022-10-16T00:55:21;4.72;;;1.80;;
65045;SDS011;54657;52.022;5.534;2022-10-16T00:57:48;2.00;;;1.77;;
65045;SDS011;54657;52.022;5.534;2022-10-16T01:00:17;4.38;;;1.90;;
65045;SDS011;54657;52.022;5.534;2022-10-16T01:02:51;3.10;;;1.75;;
65045;SDS011;54657;52.022;5.534;2022-10-16T01:05:17;4.43;;;1.90;;
65045;SDS011;54657;52.022;5.534;2022-10-16T01:10:49;4.28;;;2.25;;
65045;SDS011;54657;52.022;5.534;2022-10-16T01:13:24;3.40;;;1.80;;
65045;SDS011;54657;52.022;5.534;2022-10-16T01:16:13;1.83;;;1.73;;
65045;SDS011;54657;52.022;5.534;2022-10-16T01:21:43;5.80;;;1.90;;
65045;SDS011;54657;52.022;5.534;2022-10-16T01:29:36;4.70;;;2.13;;
65045;SDS011;54657;52.022;5.534;2022-10-16T01:32:17;2.63;;;1.80;;
65045;SDS011;54657;52.022;5.534;2022-10-16T01:37:51;2.38;;;2.03;;
65045;SDS011;54657;52.022;5.534;2022-10-16T01:40:18;4.10;;;2.07;;
65045;SDS011;54657;52.022;5.534;2022-10-16T01:42:50;4.63;;;2.20;;
65045;SDS011;54657;52.022;5.534;2022-10-16T01:45:21;4.05;;;1.73;;
65045;SDS011;54657;52.022;5.534;2022-10-16T01:47:47;3.47;;;1.80;;
65045;SDS011;54657;52.022;5.534;2022-10-16T01:50:15;2.05;;;1.75;;
65045;SDS011;54657;52.022;5.534;2022-10-16T01:52:43;2.80;;;1.85;;
65045;SDS011;54657;52.022;5.534;2022-10-16T01:55:12;2.45;;;1.80;;
65045;SDS011;54657;52.022;5.534;2022-10-16T01:57:43;3.28;;;1.92;;
65045;SDS011;54657;52.022;5.534;2022-10-16T02:00:12;4.65;;;2.00;;
65045;SDS011;54657;52.022;5.534;2022-10-16T02:02:40;2.20;;;1.80;;
65045;SDS011;54657;52.022;5.534;2022-10-16T02:05:30;3.85;;;2.17;;
65045;SDS011;54657;52.022;5.534;2022-10-16T02:07:58;3.67;;;2.10;;
65045;SDS011;54657;52.022;5.534;2022-10-16T02:10:24;3.42;;;2.10;;
65045;SDS011;54657;52.022;5.534;2022-10-16T02:12:53;5.63;;;2.40;;
65045;SDS011;54657;52.022;5.534;2022-10-16T02:15:24;2.38;;;1.92;;
65045;SDS011;54657;52.022;5.534;2022-10-16T02:17:50;2.63;;;1.98;;
65045;SDS011;54657;52.022;5.534;2022-10-16T02:20:15;3.22;;;2.10;;
65045;SDS011;54657;52.022;5.534;2022-10-16T02:22:45;2.33;;;2.08;;
65045;SDS011;54657;52.022;5.534;2022-10-16T02:27:53;3.95;;;1.70;;
65045;SDS011;54657;52.022;5.534;2022-10-16T02:30:29;3.75;;;1.83;;
65045;SDS011;54657;52.022;5.534;2022-10-16T02:32:58;3.85;;;2.00;;
65045;SDS011;54657;52.022;5.534;2022-10-16T02:35:25;4.60;;;2.38;;
65045;SDS011;54657;52.022;5.534;2022-10-16T02:37:52;4.30;;;1.90;;
65045;SDS011;54657;52.022;5.534;2022-10-16T02:40:19;4.30;;;2.22;;
65045;SDS011;54657;52.022;5.534;2022-10-16T02:42:49;3.92;;;1.77;;
65045;SDS011;54657;52.022;5.534;2022-10-16T02:45:15;6.30;;;1.83;;
65045;SDS011;54657;52.022;5.534;2022-10-16T02:47:42;6.10;;;2.10;;
65045;SDS011;54657;52.022;5.534;2022-10-16T02:50:07;3.78;;;1.80;;
65045;SDS011;54657;52.022;5.534;2022-10-16T02:52:33;1.90;;;1.48;;
65045;SDS011;54657;52.022;5.534;2022-10-16T02:54:58;2.15;;;1.70;;
65045;SDS011;54657;52.022;5.534;2022-10-16T02:57:24;1.98;;;1.73;;
65045;SDS011;54657;52.022;5.534;2022-10-16T02:59:49;2.10;;;1.70;;
65045;SDS011;54657;52.022;5.534;2022-10-16T03:02:15;2.72;;;1.90;;
65045;SDS011;54657;52.022;5.534;2022-10-16T03:04:41;2.50;;;1.77;;
65045;SDS011;54657;52.022;5.534;2022-10-16T03:07:06;4.65;;;2.20;;
65045;SDS011;54657;52.022;5.534;2022-10-16T03:09:32;4.20;;;2.33;;
65045;SDS011;54657;52.022;5.534;2022-10-16T03:11:58;1.90;;;1.70;;
65045;SDS011;54657;52.022;5.534;2022-10-16T03:14:24;3.38;;;1.85;;
65045;SDS011;54657;52.022;5.534;2022-10-16T03:16:49;3.13;;;1.75;;
65045;SDS011;54657;52.022;5.534;2022-10-16T03:19:18;2.25;;;1.75;;
65045;SDS011;54657;52.022;5.534;2022-10-16T03:21:44;2.20;;;2.00;;
65045;SDS011;54657;52.022;5.534;2022-10-16T03:24:10;3.97;;;1.73;;
65045;SDS011;54657;52.022;5.534;2022-10-16T03:26:35;5.45;;;2.00;;
65045;SDS011;54657;52.022;5.534;2022-10-16T03:29:01;3.38;;;1.90;;
65045;SDS011;54657;52.022;5.534;2022-10-16T03:31:28;3.63;;;1.83;;
65045;SDS011;54657;52.022;5.534;2022-10-16T03:33:54;3.30;;;2.00;;
65045;SDS011;54657;52.022;5.534;2022-10-16T03:36:19;4.43;;;1.85;;
65045;SDS011;54657;52.022;5.534;2022-10-16T03:38:45;2.38;;;1.90;;
65045;SDS011;54657;52.022;5.534;2022-10-16T03:41:11;1.73;;;1.55;;
65045;SDS011;54657;52.022;5.534;2022-10-16T03:43:36;2.22;;;1.80;;
65045;SDS011;54657;52.022;5.534;2022-10-16T03:46:02;3.03;;;1.60;;
65045;SDS011;54657;52.022;5.534;2022-10-16T03:48:27;5.32;;;1.83;;
65045;SDS011;54657;52.022;5.534;2022-10-16T03:50:53;5.25;;;1.63;;
65045;SDS011;54657;52.022;5.534;2022-10-16T03:53:19;2.10;;;1.55;;
65045;SDS011;54657;52.022;5.534;2022-10-16T03:55:45;1.80;;;1.70;;
65045;SDS011;54657;52.022;5.534;2022-10-16T03:58:11;2.88;;;1.60;;
65045;SDS011;54657;52.022;5.534;2022-10-16T04:00:41;1.55;;;1.40;;
65045;SDS011;54657;52.022;5.534;2022-10-16T04:03:07;4.68;;;1.73;;
65045;SDS011;54657;52.022;5.534;2022-10-16T04:05:32;1.65;;;1.40;;
65045;SDS011;54657;52.022;5.534;2022-10-16T04:07:58;4.32;;;1.80;;
65045;SDS011;54657;52.022;5.534;2022-10-16T04:10:23;2.13;;;1.70;;
65045;SDS011;54657;52.022;5.534;2022-10-16T04:12:49;3.45;;;1.67;;
65045;SDS011;54657;52.022;5.534;2022-10-16T04:15:14;1.90;;;1.27;;
65045;SDS011;54657;52.022;5.534;2022-10-16T04:17:40;2.15;;;1.58;;
65045;SDS011;54657;52.022;5.534;2022-10-16T04:20:05;1.80;;;1.50;;
65045;SDS011;54657;52.022;5.534;2022-10-16T04:22:31;2.17;;;1.73;;
65045;SDS011;54657;52.022;5.534;2022-10-16T04:24:57;4.38;;;1.45;;
65045;SDS011;54657;52.022;5.534;2022-10-16T04:27:22;4.95;;;1.60;;
65045;SDS011;54657;52.022;5.534;2022-10-16T04:29:48;3.63;;;1.80;;
65045;SDS011;54657;52.022;5.534;2022-10-16T04:32:13;2.05;;;1.60;;
65045;SDS011;54657;52.022;5.534;2022-10-16T04:34:39;3.13;;;1.42;;
65045;SDS011;54657;52.022;5.534;2022-10-16T04:37:05;1.90;;;1.45;;
65045;SDS011;54657;52.022;5.534;2022-10-16T04:39:30;2.33;;;1.40;;
65045;SDS011;54657;52.022;5.534;2022-10-16T04:41:56;2.42;;;1.80;;
65045;SDS011;54657;52.022;5.534;2022-10-16T04:44:22;1.63;;;1.50;;
65045;SDS011;54657;52.022;5.534;2022-10-16T04:46:49;3.85;;;1.60;;
65045;SDS011;54657;52.022;5.534;2022-10-16T04:49:15;2.80;;;1.80;;
65045;SDS011;54657;52.022;5.534;2022-10-16T04:51:41;1.45;;;1.30;;
65045;SDS011;54657;52.022;5.534;2022-10-16T04:54:06;2.78;;;1.95;;
65045;SDS011;54657;52.022;5.534;2022-10-16T04:56:33;3.17;;;1.30;;
65045;SDS011;54657;52.022;5.534;2022-10-16T04:59:04;2.63;;;1.52;;
65045;SDS011;54657;52.022;5.534;2022-10-16T05:01:30;2.72;;;1.40;;
65045;SDS011;54657;52.022;5.534;2022-10-16T05:03:56;3.53;;;1.70;;
65045;SDS011;54657;52.022;5.534;2022-10-16T05:06:21;3.42;;;1.60;;
65045;SDS011;54657;52.022;5.534;2022-10-16T05:08:47;4.78;;;1.50;;
65045;SDS011;54657;52.022;5.534;2022-10-16T05:11:12;2.50;;;1.40;;
65045;SDS011;54657;52.022;5.534;2022-10-16T05:13:38;1.50;;;1.40;;
65045;SDS011;54657;52.022;5.534;2022-10-16T05:16:03;1.95;;;1.45;;
65045;SDS011;54657;52.022;5.534;2022-10-16T05:18:29;1.98;;;1.58;;
65045;SDS011;54657;52.022;5.534;2022-10-16T05:20:55;1.60;;;1.50;;
65045;SDS011;54657;52.022;5.534;2022-10-16T05:23:20;3.70;;;1.70;;
65045;SDS011;54657;52.022;5.534;2022-10-16T05:25:53;2.53;;;1.65;;
65045;SDS011;54657;52.022;5.534;2022-10-16T05:28:19;3.15;;;1.52;;
65045;SDS011;54657;52.022;5.534;2022-10-16T05:30:45;3.63;;;1.77;;
65045;SDS011;54657;52.022;5.534;2022-10-16T05:33:11;4.43;;;1.60;;
65045;SDS011;54657;52.022;5.534;2022-10-16T05:35:36;2.15;;;1.40;;
65045;SDS011;54657;52.022;5.534;2022-10-16T05:38:02;2.70;;;1.50;;
65045;SDS011;54657;52.022;5.534;2022-10-16T05:40:27;2.80;;;1.67;;
65045;SDS011;54657;52.022;5.534;2022-10-16T05:42:56;5.75;;;1.90;;
65045;SDS011;54657;52.022;5.534;2022-10-16T05:45:21;3.05;;;1.75;;
65045;SDS011;54657;52.022;5.534;2022-10-16T05:47:47;2.33;;;1.63;;
65045;SDS011;54657;52.022;5.534;2022-10-16T05:50:13;2.33;;;1.48;;
65045;SDS011;54657;52.022;5.534;2022-10-16T05:52:39;2.63;;;1.98;;
65045;SDS011;54657;52.022;5.534;2022-10-16T05:55:04;4.47;;;1.65;;
65045;SDS011;54657;52.022;5.534;2022-10-16T05:57:30;2.95;;;1.60;;
65045;SDS011;54657;52.022;5.534;2022-10-16T05:59:56;2.70;;;1.75;;
65045;SDS011;54657;52.022;5.534;2022-10-16T06:02:21;3.30;;;2.00;;
65045;SDS011;54657;52.022;5.534;2022-10-16T06:04:47;2.35;;;1.63;;
65045;SDS011;54657;52.022;5.534;2022-10-16T06:07:12;2.80;;;1.52;;
65045;SDS011;54657;52.022;5.534;2022-10-16T06:09:38;1.77;;;1.63;;
65045;SDS011;54657;52.022;5.534;2022-10-16T06:12:04;2.97;;;1.75;;
65045;SDS011;54657;52.022;5.534;2022-10-16T06:14:29;1.95;;;1.67;;
65045;SDS011;54657;52.022;5.534;2022-10-16T06:16:55;2.40;;;1.80;;
65045;SDS011;54657;52.022;5.534;2022-10-16T06:19:20;4.20;;;1.92;;
65045;SDS011;54657;52.022;5.534;2022-10-16T06:21:46;3.45;;;1.85;;
65045;SDS011;54657;52.022;5.534;2022-10-16T06:24:11;2.95;;;1.63;;
65045;SDS011;54657;52.022;5.534;2022-10-16T06:26:37;3.88;;;1.65;;
65045;SDS011;54657;52.022;5.534;2022-10-16T06:29:03;3.13;;;1.80;;
65045;SDS011;54657;52.022;5.534;2022-10-16T06:31:29;2.33;;;1.80;;
65045;SDS011;54657;52.022;5.534;2022-10-16T06:33:56;3.28;;;1.48;;
65045;SDS011;54657;52.022;5.534;2022-10-16T06:36:22;2.80;;;1.80;;
65045;SDS011;54657;52.022;5.534;2022-10-16T06:38:48;3.13;;;1.98;;
65045;SDS011;54657;52.022;5.534;2022-10-16T06:41:15;2.25;;;1.80;;
65045;SDS011;54657;52.022;5.534;2022-10-16T06:43:42;4.70;;;1.90;;
65045;SDS011;54657;52.022;5.534;2022-10-16T06:46:10;1.95;;;1.80;;
65045;SDS011;54657;52.022;5.534;2022-10-16T06:48:36;5.57;;;1.83;;
65045;SDS011;54657;52.022;5.534;2022-10-16T06:51:03;4.93;;;1.80;;
65045;SDS011;54657;52.022;5.534;2022-10-16T06:56:21;3.15;;;1.73;;
65045;SDS011;54657;52.022;5.534;2022-10-16T06:58:51;5.85;;;1.58;;
65045;SDS011;54657;52.022;5.534;2022-10-16T07:01:18;3.65;;;1.67;;
65045;SDS011;54657;52.022;5.534;2022-10-16T07:03:46;2.35;;;1.73;;
65045;SDS011;54657;52.022;5.534;2022-10-16T07:06:13;9.27;;;1.85;;
65045;SDS011;54657;52.022;5.534;2022-10-16T07:08:42;3.72;;;1.75;;
65045;SDS011;54657;52.022;5.534;2022-10-16T07:11:10;4.13;;;1.83;;
65045;SDS011;54657;52.022;5.534;2022-10-16T07:13:37;2.08;;;1.48;;
65045;SDS011;54657;52.022;5.534;2022-10-16T07:16:04;3.30;;;1.67;;
65045;SDS011;54657;52.022;5.534;2022-10-16T07:18:31;3.33;;;1.60;;
65045;SDS011;54657;52.022;5.534;2022-10-16T07:21:04;4.15;;;1.67;;
65045;SDS011;54657;52.022;5.534;2022-10-16T07:23:35;2.78;;;1.52;;
65045;SDS011;54657;52.022;5.534;2022-10-16T07:26:03;4.95;;;1.50;;
65045;SDS011;54657;52.022;5.534;2022-10-16T07:28:30;2.42;;;1.58;;
65045;SDS011;54657;52.022;5.534;2022-10-16T07:30:59;3.58;;;2.30;;
65045;SDS011;54657;52.022;5.534;2022-10-16T07:33:29;4.43;;;2.30;;
65045;SDS011;54657;52.022;5.534;2022-10-16T07:35:55;4.90;;;1.73;;
65045;SDS011;54657;52.022;5.534;2022-10-16T07:38:21;4.32;;;1.80;;
65045;SDS011;54657;52.022;5.534;2022-10-16T07:40:47;3.47;;;1.45;;
65045;SDS011;54657;52.022;5.534;2022-10-16T07:43:13;4.47;;;1.88;;
65045;SDS011;54657;52.022;5.534;2022-10-16T07:45:46;4.20;;;1.80;;
65045;SDS011;54657;52.022;5.534;2022-10-16T07:48:14;2.70;;;1.88;;
65045;SDS011;54657;52.022;5.534;2022-10-16T07:50:40;3.55;;;1.98;;
65045;SDS011;54657;52.022;5.534;2022-10-16T07:53:06;4.53;;;2.47;;
65045;SDS011;54657;52.022;5.534;2022-10-16T07:55:32;3.15;;;1.55;;
65045;SDS011;54657;52.022;5.534;2022-10-16T07:57:57;4.10;;;1.90;;
65045;SDS011;54657;52.022;5.534;2022-10-16T08:00:23;3.55;;;1.90;;
65045;SDS011;54657;52.022;5.534;2022-10-16T08:02:49;4.38;;;2.72;;
65045;SDS011;54657;52.022;5.534;2022-10-16T08:05:14;3.28;;;2.70;;
65045;SDS011;54657;52.022;5.534;2022-10-16T08:07:40;6.95;;;2.65;;
65045;SDS011;54657;52.022;5.534;2022-10-16T08:10:06;4.38;;;2.08;;
65045;SDS011;54657;52.022;5.534;2022-10-16T08:12:31;6.90;;;1.80;;
65045;SDS011;54657;52.022;5.534;2022-10-16T08:14:57;1.65;;;1.52;;
65045;SDS011;54657;52.022;5.534;2022-10-16T08:17:23;3.35;;;1.65;;
65045;SDS011;54657;52.022;5.534;2022-10-16T08:19:48;5.82;;;1.90;;
65045;SDS011;54657;52.022;5.534;2022-10-16T08:22:14;5.00;;;1.70;;
65045;SDS011;54657;52.022;5.534;2022-10-16T08:24:40;4.20;;;1.80;;
65045;SDS011;54657;52.022;5.534;2022-10-16T08:27:06;2.92;;;1.80;;
65045;SDS011;54657;52.022;5.534;2022-10-16T08:29:35;2.15;;;1.73;;
65045;SDS011;54657;52.022;5.534;2022-10-16T08:32:00;1.60;;;1.50;;
65045;SDS011;54657;52.022;5.534;2022-10-16T08:34:26;3.80;;;1.55;;
65045;SDS011;54657;52.022;5.534;2022-10-16T08:36:54;4.28;;;1.90;;
65045;SDS011;54657;52.022;5.534;2022-10-16T08:39:20;2.97;;;1.45;;
65045;SDS011;54657;52.022;5.534;2022-10-16T08:41:54;2.55;;;1.60;;
65045;SDS011;54657;52.022;5.534;2022-10-16T08:50:30;6.65;;;1.77;;
65045;SDS011;54657;52.022;5.534;2022-10-16T08:53:05;7.80;;;1.95;;
65045;SDS011;54657;52.022;5.534;2022-10-16T08:55:54;8.35;;;2.10;;
65045;SDS011;54657;52.022;5.534;2022-10-16T08:58:20;3.03;;;1.65;;
65045;SDS011;54657;52.022;5.534;2022-10-16T09:07:40;5.63;;;1.77;;
65045;SDS011;54657;52.022;5.534;2022-10-16T09:14:07;4.70;;;1.67;;
65045;SDS011;54657;52.022;5.534;2022-10-16T09:16:50;6.88;;;1.50;;
65045;SDS011;54657;52.022;5.534;2022-10-16T09:19:32;5.35;;;1.60;;
65045;SDS011;54657;52.022;5.534;2022-10-16T09:22:09;4.95;;;1.20;;
65045;SDS011;54657;52.022;5.534;2022-10-16T09:24:52;4.13;;;1.63;;
65045;SDS011;54657;52.022;5.534;2022-10-16T09:27:44;5.35;;;1.65;;
65045;SDS011;54657;52.022;5.534;2022-10-16T09:30:17;7.45;;;1.80;;
65045;SDS011;54657;52.022;5.534;2022-10-16T09:32:45;6.35;;;2.00;;
65045;SDS011;54657;52.022;5.534;2022-10-16T09:35:33;6.97;;;1.67;;
65045;SDS011;54657;52.022;5.534;2022-10-16T09:38:09;7.82;;;1.70;;
65045;SDS011;54657;52.022;5.534;2022-10-16T09:40:47;5.10;;;1.50;;
65045;SDS011;54657;52.022;5.534;2022-10-16T09:46:46;4.70;;;1.73;;
65045;SDS011;54657;52.022;5.534;2022-10-16T09:50:03;5.90;;;1.90;;
65045;SDS011;54657;52.022;5.534;2022-10-16T09:53:01;6.45;;;1.90;;
65045;SDS011;54657;52.022;5.534;2022-10-16T09:55:53;4.85;;;1.60;;
65045;SDS011;54657;52.022;5.534;2022-10-16T09:58:22;7.13;;;1.92;;
65045;SDS011;54657;52.022;5.534;2022-10-16T10:00:52;7.15;;;2.13;;
65045;SDS011;54657;52.022;5.534;2022-10-16T10:03:43;7.72;;;1.95;;
65045;SDS011;54657;52.022;5.534;2022-10-16T10:06:17;7.45;;;2.10;;
65045;SDS011;54657;52.022;5.534;2022-10-16T10:08:56;9.05;;;1.80;;
65045;SDS011;54657;52.022;5.534;2022-10-16T10:11:57;8.27;;;1.80;;
65045;SDS011;54657;52.022;5.534;2022-10-16T10:14:18;7.80;;;1.80;;
65045;SDS011;54657;52.022;5.534;2022-10-16T10:16:49;11.45;;;1.73;;
65045;SDS011;54657;52.022;5.534;2022-10-16T10:19:20;6.88;;;1.70;;
65045;SDS011;54657;52.022;5.534;2022-10-16T10:21:48;4.25;;;1.60;;
65045;SDS011;54657;52.022;5.534;2022-10-16T10:24:16;8.80;;;1.85;;
65045;SDS011;54657;52.022;5.534;2022-10-16T10:32:22;7.20;;;1.80;;
65045;SDS011;54657;52.022;5.534;2022-10-16T10:35:17;6.47;;;1.48;;
65045;SDS011;54657;52.022;5.534;2022-10-16T10:38:16;10.32;;;1.98;;
65045;SDS011;54657;52.022;5.534;2022-10-16T10:40:54;6.15;;;1.60;;
65045;SDS011;54657;52.022;5.534;2022-10-16T10:55:08;8.65;;;1.95;;
65045;SDS011;54657;52.022;5.534;2022-10-16T11:00:30;5.90;;;1.70;;
65045;SDS011;54657;52.022;5.534;2022-10-16T11:06:10;6.90;;;2.05;;
65045;SDS011;54657;52.022;5.534;2022-10-16T11:08:47;7.75;;;1.77;;
65045;SDS011;54657;52.022;5.534;2022-10-16T11:11:25;10.25;;;2.33;;
65045;SDS011;54657;52.022;5.534;2022-10-16T11:14:00;8.82;;;1.60;;
65045;SDS011;54657;52.022;5.534;2022-10-16T11:16:29;5.90;;;1.50;;
65045;SDS011;54657;52.022;5.534;2022-10-16T11:19:14;6.35;;;1.90;;
65045;SDS011;54657;52.022;5.534;2022-10-16T11:21:48;9.10;;;2.55;;
65045;SDS011;54657;52.022;5.534;2022-10-16T11:24:22;6.45;;;1.58;;
65045;SDS011;54657;52.022;5.534;2022-10-16T11:26:56;5.65;;;1.67;;
65045;SDS011;54657;52.022;5.534;2022-10-16T11:29:31;7.73;;;1.70;;
65045;SDS011;54657;52.022;5.534;2022-10-16T11:32:01;7.88;;;1.60;;
65045;SDS011;54657;52.022;5.534;2022-10-16T11:34:45;7.45;;;1.75;;
65045;SDS011;54657;52.022;5.534;2022-10-16T11:37:20;7.63;;;1.50;;
65045;SDS011;54657;52.022;5.534;2022-10-16T11:40:30;10.93;;;1.48;;
65045;SDS011;54657;52.022;5.534;2022-10-16T11:42:59;7.15;;;1.45;;
65045;SDS011;54657;52.022;5.534;2022-10-16T11:45:40;6.40;;;1.63;;
65045;SDS011;54657;52.022;5.534;2022-10-16T11:54:07;10.32;;;1.73;;
65045;SDS011;54657;52.022;5.534;2022-10-16T11:56:44;7.57;;;1.60;;
65045;SDS011;54657;52.022;5.534;2022-10-16T11:59:18;4.63;;;1.30;;
65045;SDS011;54657;52.022;5.534;2022-10-16T12:01:53;6.72;;;1.80;;
65045;SDS011;54657;52.022;5.534;2022-10-16T12:04:43;5.13;;;1.58;;
65045;SDS011;54657;52.022;5.534;2022-10-16T12:07:24;9.73;;;1.83;;
65045;SDS011;54657;52.022;5.534;2022-10-16T12:09:56;5.90;;;1.73;;
65045;SDS011;54657;52.022;5.534;2022-10-16T12:12:26;10.00;;;1.60;;
65045;SDS011;54657;52.022;5.534;2022-10-16T12:17:45;6.18;;;1.83;;
65045;SDS011;54657;52.022;5.534;2022-10-16T12:22:40;9.30;;;1.90;;
65045;SDS011;54657;52.022;5.534;2022-10-16T12:28:05;7.38;;;1.85;;
65045;SDS011;54657;52.022;5.534;2022-10-16T12:30:37;6.95;;;2.03;;
65045;SDS011;54657;52.022;5.534;2022-10-16T12:33:15;9.45;;;1.98;;
65045;SDS011;54657;52.022;5.534;2022-10-16T12:35:49;10.48;;;1.63;;
65045;SDS011;54657;52.022;5.534;2022-10-16T12:38:25;7.32;;;1.92;;
65045;SDS011;54657;52.022;5.534;2022-10-16T12:40:56;7.78;;;1.52;;
65045;SDS011;54657;52.022;5.534;2022-10-16T12:43:34;6.07;;;1.40;;
65045;SDS011;54657;52.022;5.534;2022-10-16T12:46:20;8.85;;;2.15;;
65045;SDS011;54657;52.022;5.534;2022-10-16T12:49:06;8.23;;;2.03;;
65045;SDS011;54657;52.022;5.534;2022-10-16T12:51:39;8.15;;;1.58;;
65045;SDS011;54657;52.022;5.534;2022-10-16T13:05:18;7.63;;;1.60;;
65045;SDS011;54657;52.022;5.534;2022-10-16T13:13:44;7.75;;;1.75;;
65045;SDS011;54657;52.022;5.534;2022-10-16T13:16:40;10.00;;;1.50;;
65045;SDS011;54657;52.022;5.534;2022-10-16T13:19:25;5.72;;;1.50;;
65045;SDS011;54657;52.022;5.534;2022-10-16T13:30:11;5.88;;;1.30;;
65045;SDS011;54657;52.022;5.534;2022-10-16T13:32:50;7.80;;;1.88;;
65045;SDS011;54657;52.022;5.534;2022-10-16T13:35:22;6.78;;;1.63;;
65045;SDS011;54657;52.022;5.534;2022-10-16T13:40:35;5.15;;;1.55;;
65045;SDS011;54657;52.022;5.534;2022-10-16T13:43:01;7.07;;;1.90;;
65045;SDS011;54657;52.022;5.534;2022-10-16T13:45:27;8.07;;;1.52;;
65045;SDS011;54657;52.022;5.534;2022-10-16T13:48:03;6.68;;;1.80;;
65045;SDS011;54657;52.022;5.534;2022-10-16T13:50:30;6.93;;;1.20;;
65045;SDS011;54657;52.022;5.534;2022-10-16T13:53:12;7.43;;;1.67;;
65045;SDS011;54657;52.022;5.534;2022-10-16T13:55:39;8.20;;;1.85;;
65045;SDS011;54657;52.022;5.534;2022-10-16T13:58:10;8.18;;;1.83;;
65045;SDS011;54657;52.022;5.534;2022-10-16T14:00:39;6.18;;;1.80;;
65045;SDS011;54657;52.022;5.534;2022-10-16T14:03:31;6.40;;;1.75;;
65045;SDS011;54657;52.022;5.534;2022-10-16T14:06:03;5.43;;;1.70;;
65045;SDS011;54657;52.022;5.534;2022-10-16T14:08:31;6.60;;;1.38;;
65045;SDS011;54657;52.022;5.534;2022-10-16T14:10:58;8.50;;;2.00;;
65045;SDS011;54657;52.022;5.534;2022-10-16T14:13:30;6.90;;;1.33;;
65045;SDS011;54657;52.022;5.534;2022-10-16T14:16:02;4.93;;;1.27;;
65045;SDS011;54657;52.022;5.534;2022-10-16T14:18:35;9.73;;;1.80;;
65045;SDS011;54657;52.022;5.534;2022-10-16T14:21:07;8.52;;;1.40;;
65045;SDS011;54657;52.022;5.534;2022-10-16T14:23:39;9.88;;;1.77;;
65045;SDS011;54657;52.022;5.534;2022-10-16T14:26:16;5.93;;;1.80;;
65045;SDS011;54657;52.022;5.534;2022-10-16T14:28:43;6.68;;;1.50;;
65045;SDS011;54657;52.022;5.534;2022-10-16T14:33:52;7.50;;;2.13;;
65045;SDS011;54657;52.022;5.534;2022-10-16T14:36:18;8.40;;;1.92;;
65045;SDS011;54657;52.022;5.534;2022-10-16T14:38:54;8.15;;;2.03;;
65045;SDS011;54657;52.022;5.534;2022-10-16T14:41:24;7.97;;;1.60;;
65045;SDS011;54657;52.022;5.534;2022-10-16T14:43:52;7.35;;;2.45;;
65045;SDS011;54657;52.022;5.534;2022-10-16T14:46:28;5.72;;;1.40;;
65045;SDS011;54657;52.022;5.534;2022-10-16T14:49:26;6.13;;;1.65;;
65045;SDS011;54657;52.022;5.534;2022-10-16T15:25:39;6.25;;;1.80;;
65045;SDS011;54657;52.022;5.534;2022-10-16T15:28:13;7.00;;;1.85;;
65045;SDS011;54657;52.022;5.534;2022-10-16T15:33:39;8.85;;;2.17;;
65045;SDS011;54657;52.022;5.534;2022-10-16T15:36:29;5.55;;;1.33;;
65045;SDS011;54657;52.022;5.534;2022-10-16T15:39:16;11.00;;;1.77;;
65045;SDS011;54657;52.022;5.534;2022-10-16T15:41:44;11.73;;;2.10;;
65045;SDS011;54657;52.022;5.534;2022-10-16T15:44:28;7.78;;;2.30;;
65045;SDS011;54657;52.022;5.534;2022-10-16T15:46:55;13.90;;;2.38;;
65045;SDS011;54657;52.022;5.534;2022-10-16T15:49:32;7.73;;;2.20;;
65045;SDS011;54657;52.022;5.534;2022-10-16T15:52:07;6.07;;;1.48;;
65045;SDS011;54657;52.022;5.534;2022-10-16T15:54:40;9.32;;;1.67;;
65045;SDS011;54657;52.022;5.534;2022-10-16T15:57:15;6.57;;;1.70;;
65045;SDS011;54657;52.022;5.534;2022-10-16T15:59:58;9.20;;;2.05;;
65045;SDS011;54657;52.022;5.534;2022-10-16T16:02:27;10.25;;;2.15;;
65045;SDS011;54657;52.022;5.534;2022-10-16T16:05:05;7.90;;;2.20;;
65045;SDS011;54657;52.022;5.534;2022-10-16T16:07:40;11.48;;;2.40;;
65045;SDS011;54657;52.022;5.534;2022-10-16T16:10:12;12.13;;;6.00;;
65045;SDS011;54657;52.022;5.534;2022-10-16T16:12:52;13.48;;;6.47;;
65045;SDS011;54657;52.022;5.534;2022-10-16T16:15:41;15.63;;;8.13;;
65045;SDS011;54657;52.022;5.534;2022-10-16T16:18:14;18.15;;;6.93;;
65045;SDS011;54657;52.022;5.534;2022-10-16T16:20:58;13.88;;;5.75;;
65045;SDS011;54657;52.022;5.534;2022-10-16T16:23:41;16.02;;;7.10;;
65045;SDS011;54657;52.022;5.534;2022-10-16T16:28:54;26.45;;;14.70;;
65045;SDS011;54657;52.022;5.534;2022-10-16T16:31:46;23.38;;;13.32;;
65045;SDS011;54657;52.022;5.534;2022-10-16T16:34:14;22.70;;;11.73;;
65045;SDS011;54657;52.022;5.534;2022-10-16T16:45:11;15.25;;;9.05;;
65045;SDS011;54657;52.022;5.534;2022-10-16T16:47:46;14.65;;;8.45;;
65045;SDS011;54657;52.022;5.534;2022-10-16T16:55:50;37.15;;;22.35;;
65045;SDS011;54657;52.022;5.534;2022-10-16T16:58:29;25.25;;;14.25;;
65045;SDS011;54657;52.022;5.534;2022-10-16T17:01:21;17.15;;;11.52;;
65045;SDS011;54657;52.022;5.534;2022-10-16T17:04:16;18.15;;;11.82;;
65045;SDS011;54657;52.022;5.534;2022-10-16T17:06:43;18.25;;;10.15;;
65045;SDS011;54657;52.022;5.534;2022-10-16T17:09:09;16.77;;;10.43;;
65045;SDS011;54657;52.022;5.534;2022-10-16T17:11:38;18.60;;;10.32;;
65045;SDS011;54657;52.022;5.534;2022-10-16T17:14:06;16.88;;;10.10;;
65045;SDS011;54657;52.022;5.534;2022-10-16T17:16:33;16.92;;;10.45;;
65045;SDS011;54657;52.022;5.534;2022-10-16T17:19:01;15.13;;;9.50;;
65045;SDS011;54657;52.022;5.534;2022-10-16T17:21:31;17.27;;;8.85;;
65045;SDS011;54657;52.022;5.534;2022-10-16T17:23:57;20.13;;;9.05;;
65045;SDS011;54657;52.022;5.534;2022-10-16T17:26:23;16.73;;;10.55;;
65045;SDS011;54657;52.022;5.534;2022-10-16T17:28:53;32.33;;;20.75;;
65045;SDS011;54657;52.022;5.534;2022-10-16T17:31:21;47.45;;;36.65;;
65045;SDS011;54657;52.022;5.534;2022-10-16T17:33:49;28.10;;;21.60;;
65045;SDS011;54657;52.022;5.534;2022-10-16T17:36:15;27.38;;;14.63;;
65045;SDS011;54657;52.022;5.534;2022-10-16T17:38:41;17.23;;;12.30;;
65045;SDS011;54657;52.022;5.534;2022-10-16T17:43:37;19.00;;;10.57;;
65045;SDS011;54657;52.022;5.534;2022-10-16T17:46:03;15.40;;;10.00;;
65045;SDS011;54657;52.022;5.534;2022-10-16T17:48:29;14.73;;;8.15;;
65045;SDS011;54657;52.022;5.534;2022-10-16T17:50:55;17.92;;;9.55;;
65045;SDS011;54657;52.022;5.534;2022-10-16T17:53:20;13.68;;;8.95;;